createdAt,value
2023-11-04T00:01:49.185Z,61.90
2023-11-04T00:04:25.258Z,61.91
2023-11-04T00:07:04.654Z,62.12
2023-11-04T00:09:49.146Z,62.17
2023-11-04T00:12:26.885Z,62.19
2023-11-04T00:15:01.818Z,62.41
2023-11-04T00:17:35.234Z,62.57
2023-11-04T00:20:11.751Z,62.50
2023-11-04T00:22:45.035Z,62.53
2023-11-04T00:25:19.372Z,62.41
2023-11-04T00:27:52.963Z,62.44
2023-11-04T00:30:26.381Z,62.26
2023-11-04T00:32:59.814Z,62.11
2023-11-04T00:35:36.095Z,62.08
2023-11-04T00:38:09.974Z,62.13
2023-11-04T00:40:43.778Z,62.06
2023-11-04T00:43:17.430Z,61.96
2023-11-04T00:45:50.960Z,62.07
2023-11-04T00:48:24.722Z,62.16
2023-11-04T00:50:58.018Z,62.16
2023-11-04T00:53:31.711Z,62.24
2023-11-04T00:56:06.306Z,62.43
2023-11-04T00:58:39.892Z,62.53
2023-11-04T01:01:13.939Z,62.67
2023-11-04T01:03:47.420Z,62.71
2023-11-04T01:06:21.152Z,62.67
2023-11-04T01:08:54.720Z,62.65
2023-11-04T01:11:28.232Z,62.67
2023-11-04T01:14:01.940Z,62.65
2023-11-04T01:16:35.440Z,62.56
2023-11-04T01:19:08.892Z,62.52
2023-11-04T01:21:42.815Z,62.63
2023-11-04T01:24:16.270Z,62.77
2023-11-04T01:26:54.316Z,62.76
2023-11-04T01:29:27.570Z,62.88
2023-11-04T01:32:03.957Z,62.82
2023-11-04T01:34:37.365Z,63.01
2023-11-04T01:37:11.723Z,63.10
2023-11-04T01:39:46.570Z,63.09
2023-11-04T01:42:19.976Z,63.10
2023-11-04T01:44:53.412Z,63.04
2023-11-04T01:47:26.780Z,62.88
2023-11-04T01:50:00.707Z,62.65
2023-11-04T01:52:34.848Z,62.74
2023-11-04T01:55:14.078Z,62.87
2023-11-04T01:57:48.974Z,62.80
2023-11-04T02:00:22.801Z,62.77
2023-11-04T02:02:56.640Z,62.62
2023-11-04T02:05:30.216Z,62.64
2023-11-04T02:08:03.763Z,62.54
2023-11-04T02:10:37.252Z,62.70
2023-11-04T02:13:10.972Z,62.53
2023-11-04T02:15:44.532Z,62.64
2023-11-04T02:18:18.989Z,62.50
2023-11-04T02:20:54.320Z,62.62
2023-11-04T02:23:27.619Z,62.84
2023-11-04T02:26:01.019Z,62.78
2023-11-04T02:28:35.242Z,62.86
2023-11-04T02:31:09.604Z,62.87
2023-11-04T02:33:43.693Z,62.94
2023-11-04T02:36:17.309Z,63.05
2023-11-04T02:38:50.870Z,63.08
2023-11-04T02:41:24.949Z,63.04
2023-11-04T02:43:58.848Z,63.24
2023-11-04T02:46:33.110Z,63.25
2023-11-04T02:49:07.118Z,63.45
2023-11-04T02:51:41.166Z,63.80
2023-11-04T02:54:15.461Z,63.62
2023-11-04T02:56:49.316Z,63.72
2023-11-04T02:59:23.110Z,63.65
2023-11-04T03:01:57.965Z,63.50
2023-11-04T03:04:31.903Z,63.40
2023-11-04T03:07:08.468Z,63.39
2023-11-04T03:09:46.248Z,63.38
2023-11-04T03:12:20.100Z,63.41
2023-11-04T03:14:53.790Z,63.20
2023-11-04T03:17:27.623Z,63.18
2023-11-04T03:20:01.481Z,63.12
2023-11-04T03:22:35.406Z,63.04
2023-11-04T03:25:11.137Z,63.08
2023-11-04T03:27:45.118Z,63.05
2023-11-04T03:30:19.293Z,62.94
2023-11-04T03:32:53.277Z,62.66
2023-11-04T03:35:28.039Z,62.15
2023-11-04T03:38:01.529Z,61.72
2023-11-04T03:40:35.260Z,61.69
2023-11-04T03:43:09.110Z,61.54
2023-11-04T03:45:43.394Z,61.52
2023-11-04T03:48:17.541Z,61.46
2023-11-04T03:50:53.419Z,61.58
2023-11-04T03:53:27.085Z,61.59
2023-11-04T03:56:02.232Z,61.59
2023-11-04T03:58:35.940Z,61.46
2023-11-04T04:01:10.232Z,61.24
2023-11-04T04:03:45.253Z,61.09
2023-11-04T04:06:20.222Z,61.06
2023-11-04T04:08:54.029Z,61.09
2023-11-04T04:11:27.845Z,61.10
2023-11-04T04:14:01.588Z,61.19
2023-11-04T04:16:35.616Z,61.33
2023-11-04T04:19:09.645Z,61.49
2023-11-04T04:21:43.602Z,61.38
2023-11-04T04:24:17.143Z,61.37
2023-11-04T04:26:53.204Z,61.34
2023-11-04T04:29:29.326Z,61.30
2023-11-04T04:32:03.104Z,61.25
2023-11-04T04:34:36.823Z,61.16
2023-11-04T04:37:10.762Z,60.98
2023-11-04T04:39:45.089Z,60.72
2023-11-04T04:42:21.329Z,60.51
2023-11-04T04:44:55.225Z,60.21
2023-11-04T04:47:29.862Z,59.85
2023-11-04T04:50:10.419Z,59.59
2023-11-04T04:52:49.108Z,59.32
2023-11-04T04:55:23.406Z,59.32
2023-11-04T04:57:57.937Z,59.30
2023-11-04T05:00:34.693Z,59.27
2023-11-04T05:03:10.988Z,59.47
2023-11-04T05:05:45.684Z,59.23
2023-11-04T05:08:20.617Z,59.10
2023-11-04T05:10:55.046Z,59.01
2023-11-04T05:13:31.185Z,58.79
2023-11-04T05:16:07.229Z,58.68
2023-11-04T05:18:44.987Z,58.63
2023-11-04T05:21:20.306Z,58.39
2023-11-04T05:23:55.497Z,58.26
2023-11-04T05:26:30.870Z,58.06
2023-11-04T05:29:05.082Z,57.93
2023-11-04T05:31:40.716Z,57.80
2023-11-04T05:34:14.366Z,57.65
2023-11-04T05:36:50.585Z,57.55
2023-11-04T05:39:26.021Z,57.17
2023-11-04T05:42:22.964Z,57.19
2023-11-04T05:44:59.033Z,57.06
2023-11-04T05:47:37.811Z,56.61
2023-11-04T05:50:12.633Z,56.22
2023-11-04T05:52:46.902Z,56.17
2023-11-04T05:55:20.528Z,55.89
2023-11-04T05:57:54.040Z,55.88
2023-11-04T06:00:27.767Z,55.64
2023-11-04T06:03:08.686Z,55.01
2023-11-04T06:05:42.965Z,54.77
2023-11-04T06:08:17.546Z,54.60
2023-11-04T06:10:52.667Z,54.63
2023-11-04T06:13:39.569Z,54.44
2023-11-04T06:16:14.365Z,54.15
2023-11-04T06:18:49.005Z,53.64
2023-11-04T06:21:23.798Z,52.67
2023-11-04T06:24:00.074Z,47.64
2023-11-04T06:26:31.626Z,41.70
2023-11-04T06:29:07.070Z,35.90
2023-11-04T06:31:40.502Z,31.44
2023-11-04T06:34:14.672Z,27.86
2023-11-04T06:36:48.179Z,24.68
2023-11-04T06:39:23.427Z,22.17
2023-11-04T06:42:03.120Z,19.67
2023-11-04T06:44:53.150Z,17.94
2023-11-04T06:47:33.598Z,16.22
2023-11-04T06:50:11.567Z,14.66
2023-11-04T06:52:53.981Z,13.52
2023-11-04T06:55:28.152Z,12.53
2023-11-04T06:58:02.083Z,11.79
2023-11-04T07:00:36.001Z,11.04
2023-11-04T07:03:27.582Z,10.41
2023-11-04T07:06:07.253Z,9.66
2023-11-04T07:08:44.921Z,9.35
2023-11-04T07:11:35.741Z,9.02
2023-11-04T07:14:13.678Z,8.30
2023-11-04T07:16:53.358Z,8.15
2023-11-04T07:19:27.512Z,7.67
2023-11-04T07:22:08.821Z,7.55
2023-11-04T07:24:44.870Z,7.19
2023-11-04T07:27:43.558Z,7.13
2023-11-04T07:30:46.438Z,7.56
2023-11-04T07:33:28.811Z,9.03
2023-11-04T07:36:03.009Z,11.46
2023-11-04T07:38:38.666Z,13.38
2023-11-04T07:41:15.015Z,15.46
2023-11-04T07:43:49.709Z,17.81
2023-11-04T07:46:25.132Z,19.71
2023-11-04T07:49:03.244Z,21.92
2023-11-04T07:51:40.689Z,23.84
2023-11-04T07:54:18.629Z,25.26
2023-11-04T07:56:57.274Z,26.84
2023-11-04T07:59:33.850Z,28.25
2023-11-04T08:02:08.445Z,29.27
2023-11-04T08:04:42.019Z,30.37
2023-11-04T08:07:16.964Z,31.26
2023-11-04T08:09:54.396Z,31.66
2023-11-04T08:12:28.824Z,32.52
2023-11-04T08:15:07.954Z,32.88
2023-11-04T08:17:44.324Z,33.42
2023-11-04T08:20:21.981Z,34.12
2023-11-04T08:22:57.336Z,34.41
2023-11-04T08:25:32.889Z,34.56
2023-11-04T08:28:08.171Z,34.78
2023-11-04T08:30:41.681Z,34.90
2023-11-04T08:33:15.264Z,35.02
2023-11-04T08:35:48.987Z,34.99
2023-11-04T08:42:32.202Z,34.83
2023-11-04T08:45:39.562Z,34.30
2023-11-04T08:48:52.226Z,34.44
2023-11-04T08:51:43.748Z,34.49
2023-11-04T08:54:47.639Z,34.43
2023-11-04T08:57:30.966Z,34.26
2023-11-04T09:00:40.054Z,34.15
2023-11-04T09:03:45.222Z,33.84
2023-11-04T09:06:45.698Z,33.17
2023-11-04T09:09:57.703Z,33.53
2023-11-04T09:12:52.270Z,33.55
2023-11-04T09:16:17.827Z,33.43
2023-11-04T09:19:10.261Z,33.48
2023-11-04T09:21:45.309Z,32.46
2023-11-04T09:24:38.392Z,32.30
2023-11-04T09:27:14.446Z,32.31
2023-11-04T09:29:56.900Z,32.00
2023-11-04T09:33:16.561Z,31.39
2023-11-04T09:36:27.184Z,31.15
2023-11-04T09:39:18.048Z,30.87
2023-11-04T09:51:56.792Z,29.64
2023-11-04T09:54:50.668Z,29.54
2023-11-04T09:57:34.793Z,29.40
2023-11-04T10:00:28.691Z,29.29
2023-11-04T10:03:08.297Z,28.95
2023-11-04T10:05:42.948Z,28.35
2023-11-04T10:08:16.412Z,28.63
2023-11-04T10:10:52.549Z,28.62
2023-11-04T10:13:25.920Z,28.40
2023-11-04T10:15:59.316Z,28.31
2023-11-04T10:18:35.261Z,28.24
2023-11-04T10:21:12.906Z,27.86
2023-11-04T10:23:48.820Z,27.87
2023-11-04T10:26:30.937Z,27.67
2023-11-04T10:29:09.937Z,27.65
2023-11-04T10:31:49.536Z,27.70
2023-11-04T10:34:30.468Z,27.81
2023-11-04T10:37:14.773Z,27.30
2023-11-04T10:39:53.641Z,27.53
2023-11-04T10:42:36.275Z,27.39
2023-11-04T10:45:20.677Z,27.54
2023-11-04T10:48:02.852Z,27.49
2023-11-04T10:50:44.913Z,27.16
2023-11-04T10:53:43.958Z,27.48
2023-11-04T10:56:27.545Z,27.52
2023-11-04T10:59:10.081Z,27.03
2023-11-04T11:01:49.704Z,27.05
2023-11-04T11:04:26.643Z,27.15
2023-11-04T11:07:02.217Z,26.82
2023-11-04T11:09:39.339Z,26.68
2023-11-04T11:12:18.605Z,26.56
2023-11-04T11:14:52.770Z,26.51
2023-11-04T11:17:35.851Z,26.59
2023-11-04T11:20:32.747Z,26.43
2023-11-04T11:23:12.366Z,26.56
2023-11-04T11:25:46.361Z,26.55
2023-11-04T11:28:25.274Z,26.31
2023-11-04T11:31:03.647Z,26.41
2023-11-04T11:33:39.267Z,25.99
2023-11-04T11:36:16.977Z,26.22
2023-11-04T11:38:52.479Z,26.44
2023-11-04T11:41:26.909Z,26.16
2023-11-04T11:44:00.265Z,26.12
2023-11-04T11:46:35.998Z,26.24
2023-11-04T11:49:11.550Z,26.43
2023-11-04T11:51:47.165Z,26.50
2023-11-04T11:54:21.776Z,26.49
2023-11-04T11:56:56.606Z,26.65
2023-11-04T11:59:30.136Z,26.62
2023-11-04T12:02:03.416Z,26.59
2023-11-04T12:04:39.454Z,26.58
2023-11-04T12:07:17.532Z,26.82
2023-11-04T12:09:51.827Z,27.01
2023-11-04T12:12:28.021Z,26.93
2023-11-04T12:15:08.876Z,27.06
2023-11-04T12:17:42.745Z,27.18
2023-11-04T12:20:18.397Z,26.91
2023-11-04T12:22:52.059Z,26.65
2023-11-04T12:25:31.841Z,26.78
2023-11-04T12:28:08.911Z,26.86
2023-11-04T12:30:42.429Z,27.12
2023-11-04T12:33:18.467Z,27.09
2023-11-04T12:36:07.512Z,27.24
2023-11-04T12:38:47.726Z,27.42
2023-11-04T12:41:23.774Z,27.41
2023-11-04T12:43:57.913Z,27.53
2023-11-04T12:46:35.046Z,27.46
2023-11-04T12:49:11.941Z,27.70
2023-11-04T12:51:50.786Z,27.98
2023-11-04T12:54:24.102Z,28.16
2023-11-04T12:56:57.615Z,27.93
2023-11-04T12:59:30.966Z,28.11
2023-11-04T13:02:07.481Z,28.41
2023-11-04T13:04:39.576Z,28.59
2023-11-04T13:07:13.742Z,28.71
2023-11-04T13:09:47.170Z,28.79
2023-11-04T13:12:20.851Z,28.94
2023-11-04T13:14:54.190Z,28.78
2023-11-04T13:17:29.001Z,29.02
2023-11-04T13:20:03.966Z,29.42
2023-11-04T13:22:38.277Z,29.57
2023-11-04T13:25:15.122Z,29.91
2023-11-04T13:27:51.092Z,30.02
2023-11-04T13:30:27.263Z,29.94
2023-11-04T13:33:09.349Z,30.15
2023-11-04T13:35:46.488Z,30.40
2023-11-04T13:38:36.469Z,30.65
2023-11-04T13:41:11.011Z,30.81
2023-11-04T13:43:44.995Z,30.97
2023-11-04T13:46:20.016Z,31.55
2023-11-04T13:48:53.824Z,31.74
2023-11-04T13:51:27.228Z,32.07
2023-11-04T13:54:05.232Z,32.14
2023-11-04T13:56:42.321Z,32.54
2023-11-04T13:59:15.602Z,32.54
2023-11-04T14:01:48.900Z,32.24
2023-11-04T14:04:22.536Z,32.28
2023-11-04T14:06:56.397Z,32.45
2023-11-04T14:09:29.993Z,32.69
2023-11-04T14:12:03.473Z,32.84
2023-11-04T14:14:36.862Z,33.04
2023-11-04T14:17:10.653Z,33.33
2023-11-04T14:19:44.083Z,33.50
2023-11-04T14:22:19.015Z,33.48
2023-11-04T14:24:54.663Z,33.45
2023-11-04T14:27:28.438Z,33.52
2023-11-04T14:30:03.467Z,34.00
2023-11-04T14:32:37.475Z,34.16
2023-11-04T14:35:12.630Z,34.30
2023-11-04T14:37:45.877Z,34.28
2023-11-04T14:40:20.002Z,34.54
2023-11-04T14:42:54.466Z,34.71
2023-11-04T14:45:31.163Z,34.90
2023-11-04T14:48:06.117Z,35.19
2023-11-04T14:50:41.960Z,35.56
2023-11-04T14:53:15.974Z,36.25
2023-11-04T14:55:49.343Z,36.55
2023-11-04T14:58:26.410Z,36.84
2023-11-04T15:01:14.013Z,37.39
2023-11-04T15:03:52.069Z,37.77
2023-11-04T15:06:26.653Z,38.02
2023-11-04T15:09:00.296Z,37.86
2023-11-04T15:11:43.817Z,38.02
2023-11-04T15:14:19.477Z,38.30
2023-11-04T15:16:56.164Z,38.52
2023-11-04T15:19:34.243Z,38.82
2023-11-04T15:22:10.450Z,39.05
2023-11-04T15:24:47.838Z,39.08
2023-11-04T15:27:23.076Z,39.37
2023-11-04T15:29:59.347Z,39.86
2023-11-04T15:32:32.732Z,40.18
2023-11-04T15:35:08.436Z,40.25
2023-11-04T15:37:41.866Z,40.33
2023-11-04T15:40:18.152Z,40.55
2023-11-04T15:42:52.908Z,40.50
2023-11-04T15:45:27.739Z,40.62
2023-11-04T15:48:01.677Z,40.95
2023-11-04T15:50:36.139Z,40.87
2023-11-04T15:53:10.949Z,40.46
2023-11-04T15:55:47.784Z,40.33
2023-11-04T15:58:22.950Z,40.52
2023-11-04T16:00:56.832Z,40.53
2023-11-04T16:03:32.246Z,40.50
2023-11-04T16:09:03.706Z,40.67
2023-11-04T16:11:37.542Z,40.79
2023-11-04T16:14:14.742Z,41.10
2023-11-04T16:16:46.469Z,40.93
2023-11-04T16:19:20.992Z,40.48
2023-11-04T16:21:54.499Z,39.56
2023-11-04T16:24:28.094Z,39.31
2023-11-04T16:27:01.549Z,39.57
2023-11-04T16:29:35.816Z,39.29
2023-11-04T16:32:11.063Z,39.14
2023-11-04T16:34:44.721Z,39.06
2023-11-04T16:37:23.191Z,39.70
2023-11-04T16:39:58.777Z,39.80
2023-11-04T16:42:35.607Z,39.79
2023-11-04T16:45:16.013Z,39.80
2023-11-04T16:47:55.976Z,40.01
2023-11-04T16:50:41.786Z,40.12
2023-11-04T16:53:22.729Z,40.33
2023-11-04T16:56:06.756Z,40.38
2023-11-04T16:58:41.870Z,40.37
2023-11-04T17:01:16.682Z,40.35
2023-11-04T17:03:52.342Z,40.34
2023-11-04T17:06:26.029Z,40.50
2023-11-04T17:09:00.807Z,40.98
2023-11-04T17:11:34.510Z,41.33
2023-11-04T17:14:08.832Z,41.55
2023-11-04T17:16:42.978Z,41.64
2023-11-04T17:19:25.238Z,41.76
2023-11-04T17:22:01.304Z,41.90
2023-11-04T17:24:36.367Z,41.97
2023-11-04T17:27:13.631Z,41.97
2023-11-04T17:29:50.609Z,42.08
2023-11-04T17:32:29.056Z,42.45
2023-11-04T17:35:08.386Z,42.50
2023-11-04T17:37:49.234Z,42.49
2023-11-04T17:40:23.804Z,42.51
2023-11-04T17:42:58.359Z,42.42
2023-11-04T17:45:35.007Z,42.74
2023-11-04T17:48:14.742Z,42.82
2023-11-04T17:50:50.392Z,42.73
2023-11-04T17:53:24.780Z,42.58
2023-11-04T17:56:00.578Z,42.96
2023-11-04T17:58:34.570Z,43.24
2023-11-04T18:01:10.040Z,43.66
2023-11-04T18:03:44.636Z,43.68
2023-11-04T18:06:19.019Z,43.21
2023-11-04T18:08:52.757Z,42.84
2023-11-04T18:11:26.413Z,42.55
2023-11-04T18:14:01.479Z,42.96
2023-11-04T18:16:35.348Z,43.07
2023-11-04T18:19:19.272Z,42.90
2023-11-04T18:21:57.581Z,43.50
2023-11-04T18:27:45.317Z,43.88
2023-11-04T18:30:28.984Z,43.99
2023-11-04T18:33:21.937Z,44.06
2023-11-04T18:35:56.855Z,44.12
2023-11-04T18:38:30.596Z,44.15
2023-11-04T18:41:04.135Z,44.40
2023-11-04T18:43:37.922Z,44.53
2023-11-04T18:46:11.988Z,44.35
2023-11-04T18:48:45.314Z,44.51
2023-11-04T18:51:20.744Z,44.69
2023-11-04T18:53:58.220Z,44.72
2023-11-04T18:56:31.704Z,44.99
2023-11-04T18:59:05.207Z,44.77
2023-11-04T19:01:41.767Z,44.70
2023-11-04T19:04:15.613Z,44.90
2023-11-04T19:06:49.621Z,45.02
2023-11-04T19:09:26.236Z,45.00
2023-11-04T19:11:59.704Z,45.18
2023-11-04T19:14:33.184Z,45.41
2023-11-04T19:17:08.779Z,45.41
2023-11-04T19:19:42.803Z,45.45
2023-11-04T19:22:16.607Z,45.53
2023-11-04T19:24:51.548Z,45.53
2023-11-04T19:27:30.200Z,46.02
2023-11-04T19:30:46.538Z,46.16
2023-11-04T19:33:23.036Z,46.56
2023-11-04T19:35:59.241Z,46.63
2023-11-04T19:38:37.953Z,46.83
2023-11-04T19:41:15.384Z,46.88
2023-11-04T19:43:51.466Z,47.01
2023-11-04T19:46:31.562Z,47.08
2023-11-04T19:49:04.635Z,47.07
2023-11-04T19:51:46.744Z,47.24
2023-11-04T19:54:26.561Z,47.42
2023-11-04T19:57:08.703Z,47.59
2023-11-04T19:59:45.927Z,47.66
2023-11-04T20:02:22.603Z,47.78
2023-11-04T20:04:58.251Z,47.91
2023-11-04T20:07:36.849Z,47.99
2023-11-04T20:10:12.557Z,48.16
2023-11-04T20:12:48.402Z,48.30
2023-11-04T20:15:29.305Z,48.62
2023-11-04T20:18:02.982Z,48.89
2023-11-04T20:20:40.065Z,49.00
2023-11-04T20:23:14.820Z,49.32
2023-11-04T20:25:53.574Z,49.43
2023-11-04T20:28:31.751Z,49.50
2023-11-04T20:31:05.839Z,49.75
2023-11-04T20:33:52.306Z,49.72
2023-11-04T20:36:26.650Z,49.68
2023-11-04T20:39:01.737Z,49.94
2023-11-04T20:41:37.304Z,50.22
2023-11-04T20:44:10.991Z,50.28
2023-11-04T20:46:44.704Z,50.47
2023-11-04T20:49:18.084Z,50.50
2023-11-04T20:51:54.242Z,50.60
2023-11-04T20:54:27.706Z,50.60
2023-11-04T20:57:02.774Z,50.58
2023-11-04T20:59:36.054Z,50.48
2023-11-04T21:02:10.675Z,50.53
2023-11-04T21:04:44.501Z,50.65
2023-11-04T21:07:17.886Z,50.57
2023-11-04T21:09:51.649Z,50.80
2023-11-04T21:12:26.266Z,50.94
2023-11-04T21:15:00.591Z,51.08
2023-11-04T21:17:35.224Z,51.33
2023-11-04T21:20:14.472Z,51.36
2023-11-04T21:22:47.828Z,51.41
2023-11-04T21:25:21.375Z,51.61
2023-11-04T21:27:54.630Z,51.71
2023-11-04T21:30:28.363Z,51.79
2023-11-04T21:33:01.713Z,51.88
2023-11-04T21:35:35.801Z,51.85
2023-11-04T21:38:09.092Z,51.94
2023-11-04T21:40:42.773Z,51.93
2023-11-04T21:43:16.357Z,52.10
2023-11-04T21:45:49.902Z,52.17
2023-11-04T21:48:23.739Z,52.35
2023-11-04T21:50:57.093Z,52.51
2023-11-04T21:53:30.332Z,52.50
2023-11-04T21:56:03.693Z,52.46
2023-11-04T21:58:37.182Z,52.71
2023-11-04T22:01:12.940Z,52.79
2023-11-04T22:03:47.369Z,53.07
2023-11-04T22:06:20.950Z,53.05
2023-11-04T22:08:55.016Z,53.20
2023-11-04T22:11:30.674Z,53.35
2023-11-04T22:14:05.630Z,53.48
2023-11-04T22:16:39.093Z,53.65
2023-11-04T22:19:12.504Z,53.71
2023-11-04T22:21:45.848Z,53.70
2023-11-04T22:24:19.239Z,53.81
2023-11-04T22:26:52.735Z,53.90
2023-11-04T22:29:26.851Z,53.88
2023-11-04T22:32:00.143Z,53.96
2023-11-04T22:34:33.540Z,53.86
2023-11-04T22:37:07.229Z,53.86
2023-11-04T22:39:40.593Z,53.88
2023-11-04T22:42:14.713Z,53.66
2023-11-04T22:44:49.885Z,53.63
2023-11-04T22:47:24.761Z,53.52
2023-11-04T22:49:59.889Z,53.56
2023-11-04T22:52:35.474Z,53.73
2023-11-04T22:55:10.604Z,53.68
2023-11-04T22:57:44.353Z,53.67
2023-11-04T23:00:31.932Z,53.75
2023-11-04T23:03:07.036Z,53.64
2023-11-04T23:05:41.352Z,53.73
2023-11-04T23:08:17.042Z,53.84
2023-11-04T23:10:51.432Z,53.66
2023-11-04T23:13:26.131Z,53.50
2023-11-04T23:18:53.905Z,53.57
2023-11-04T23:21:28.426Z,53.82
2023-11-04T23:24:04.260Z,53.97
2023-11-04T23:26:38.903Z,54.09
2023-11-04T23:29:12.912Z,54.03
2023-11-04T23:31:48.042Z,54.14
2023-11-04T23:34:21.915Z,54.28
2023-11-04T23:36:55.993Z,54.22
2023-11-04T23:39:29.991Z,54.34
2023-11-04T23:42:05.031Z,54.44
2023-11-04T23:44:38.749Z,54.46
2023-11-04T23:47:13.818Z,54.66
2023-11-04T23:49:49.035Z,54.83
2023-11-04T23:52:24.517Z,54.93
2023-11-04T23:54:59.260Z,54.85
2023-11-04T23:57:33.209Z,54.91
